空港情報

日本の空港の気象及び、管制情報です。
気象情報はより詳細な情報が取得できる「AVIATION WEATER CENTER」 から取得しているため、VATSIMの気象情報と若干のタイムラグが生じることがあります。

VRCのフィールド設定用空港一覧はこちらをご覧ください。

RJCG Sapporo Control

RJCW / Wakkanai
IMC

NO RADAR

RADIO

08/26 2200x45

民間 civil

9999

230@10KT

29.62

RJCW 050800Z 23010KT 9999 FEW003 BKN008 BKN015 13/12 Q1003

RJER / Rishiri

NO RADAR

REMOTE

25/07 1800x45

民間 civil

過去5時間に発表されたMETARがありません。

RJEB / Monbetsu
VMC

NO RADAR

REMOTE

32/14 2000x45

民間 civil

9999

030@4KT

29.62

RJEB 050700Z 03004KT 310V080 9999 FEW020 BKN050 14/13 Q1003

RJCM / Memanbetsu
VMC

NO RADAR

TOWER

36/18 2500x45

民間 civil

9999

040@5KT

29.62

RJCM 050800Z 04005KT 9999 -SHRA FEW003 SCT050 BKN070 15/13 Q1003

RJEC / Asahikawa
VMC

NO RADAR

TOWER

34/16 2500x60

民間 civil

9999

330@9KT

29.65

RJEC 050800Z 33009KT 9999 FEW020 SCT060 BKN100 18/12 Q1004

RJCN / Nakashibetsu
IMC

NO RADAR

RADIO

08/26 2000x45

民間 civil

4500

040@6KT

29.62

RJCN 050800Z 04006KT 350V080 4500 -SHRA BR FEW002 BKN003 BKN004 11/10 Q1003

RJCK / Kushiro
VMC

NO RADAR

TOWER

17/35 2500x45

民間 civil

5000

080@3KT

29.62

RJCK 050840Z 08003KT 040V130 5000 R17/P2000N PRFG BR FEW001 SCT006 13/12 Q1003 RMK 1ST001 4ST006 A2962 FG N-SE

RJCO / Sapporo
VMC

RJCO_APP

TOWER

14/32 1500x30

共用 dual

9999

360@14KT

29.68

RJCO 050800Z 36014KT 9999 FEW015 SCT040 16/12 Q1005

RJCJ / Chitose

RJCC_APP

TOWER

36R/18L 3000x60
36L/18R 2700x45

自衛隊 military

過去5時間に発表されたMETARがありません。

RJCC / NewChitose
VMC

RJCC_APP

TOWER

01L/19R 3000x60
01R/19L 3000x60

民間 civil

9999

360@10KT

29.65

RJCC 050830Z 36010KT 9999 FEW020 SCT040 19/13 Q1004 RMK 1CU020 3CU040 A2966

RJCB / Obihiro
VMC

NO RADAR

TOWER

35/17 2500x45

民間 civil

9999

150@5KT

29.59

RJCB 050800Z 15005KT 9999 FEW040 21/14 Q1002

RJEO / Okushiri

NO RADAR

REMOTE

12/30 1500x45

民間 civil

過去5時間に発表されたMETARがありません。

RJCH / Hakodate
VMC

RJCH_APP

TOWER

12/30 3000x45

民間 civil

9999

210@9KT

29.68

RJCH 050800Z 21009KT 9999 FEW020 15/13 Q1005

RJSA / Aomori
VMC

NO RADAR

TOWER

24/06 3000x60

民間 civil

9999

270@9KT

29.70

RJSA 050800Z 27009KT 9999 FEW040 SCT100 19/09 Q1006

RJSO / Ominato

RJSM_APP

TOWER

04/22 600x45

自衛隊 military

過去5時間に発表されたMETARがありません。

RJSM / Misawa
VMC

RJSM_APP

TOWER

10/28 3050x45

共用 dual

9999

120@8KT

29.68

RJSM 050800Z 12008KT 9999 FEW040 SCT080 20/14 Q1005

RJSH / Hachinohe
VMC

RJSM_APP

TOWER

25/07 2250x45

自衛隊 military

9999

040@10KT

29.65

RJSH 050436Z 04010KT 9999 FEW035 SCT200 27/12 Q1004 RMK 2CU035 A2966

RJSK / Akita
VMC

NO RADAR

TOWER

10/28 2500x60

民間 civil

9999

270@10KT

29.68

RJSK 050800Z 27010KT 9999 FEW030 SCT050 BKN100 21/15 Q1005

RJSI / Hanamaki
VMC

NO RADAR

RADIO

20/02 2500x45

民間 civil

9999

300@5KT

29.65

RJSI 050800Z 30005KT 240V340 9999 FEW040 SCT070 BKN/// 26/14 Q1004

RJSR / Odate-Noshiro
VMC

NO RADAR

REMOTE

11/29 2000x45

民間 civil

9999

250@4KT

29.68

RJSR 050800Z 25004KT 220V290 9999 FEW030 BKN090 BKN/// 21/12 Q1005

RJTG Tokyo Control

RJSY / Shonai
VMC

NO RADAR

RADIO

09/27 2000x45

民間 civil

9999

330@5KT

29.68

RJSY 050800Z 33005KT 290V020 9999 FEW010 BKN035 20/17 Q1005

RJSC / Yamagata
VMC

NO RADAR

RADIO

01/19 2000x45

民間 civil

9999

360@15KT

29.65

RJSC 050800Z 36015KT 9999 FEW030 BKN080 25/19 Q1004

RJST / Matsushima

RJSS_APP

TOWER

07/25 2071x46
15/33 1500x46

自衛隊 military

過去5時間に発表されたMETARがありません。

RJSS / Sendai
VMC

RJSS_APP

TOWER

27/09 3000x45
12/30 1200x45

民間 civil

9000

170@7KT

29.65

RJSS 050800Z 17007KT 130V200 9000 FEW005 SCT008 BKN020 22/19 Q1004

RJSD / Sado
VMC

NO RADAR

REMOTE

10/28 890x25

民間 civil

9999

060@5KT

29.70

RJSD 050800Z AUTO 06005KT 9999 FEW017 SCT038 BKN046 20/18 Q1006

RJSN / Niigata
VMC

RJSN_APP

TOWER

10/28 2500x45
04/22 1314x45

民間 civil

8000

020@4KT

29.70

RJSN 050800Z 02004KT 8000 FEW007 SCT040 BKN050 21/19 Q1006

RJSF / Fukushima
VMC

NO RADAR

RADIO

01/19 2500x60

民間 civil

9999

110@8KT

29.68

RJSF 050800Z 11008KT 080V140 9999 FEW020 SCT/// 24/24 Q1005

RJAH / Ibaraki/Hyakuri
VMC

RJAH_APP

TOWER

03L/21R 2700x45
03R/21L 2700x45

共用 dual

9999

180@12KT

29.65

RJAH 050800Z 18012KT 9999 FEW030 BKN210 27/19 Q1004

RJTT / Tokyo
VMC

RJTT_APP

TOWER

34LR/16RL 3000x60
04/22&05/23 2500x60

民間 civil

9999

200@18KT

29.65

RJTT 050830Z 20018KT 9999 FEW020 BKN/// 25/21 Q1004 NOSIG RMK 1CU020 A2966

RJAA / Narita
VMC

RJTT_APP

TOWER

34L/16R 4000x60
34R/16L 2500x60

民間 civil

9999

160@10KT

29.65

RJAA 050830Z 16010KT 9999 FEW030 BKN/// 26/20 Q1004 BECMG 23008KT RMK 1CU030 A2967

RJTL / Shimofusa

RJTT_APP

TOWER

19/01 2250x45

自衛隊 military

過去5時間に発表されたMETARがありません。

RJTE / Tateyama

RJTT_APP

TOWER

09/27 300x45

自衛隊 military

過去5時間に発表されたMETARがありません。

RJTO / Oshima
VMC

NO RADAR

RADIO

03/21 1800x45

民間 civil

9999

220@12KT

29.68

RJTO 050800Z 22012KT 9999 FEW012 BKN/// 25/21 Q1005

RJTK / Kisarazu

NO RADAR

TOWER

02/20 1830x45

自衛隊 military

過去5時間に発表されたMETARがありません。

RJAN / Niijima

NO RADAR

REMOTE

11/29 800x25

自衛隊 military

過去5時間に発表されたMETARがありません。

RJAZ / Kozushima

NO RADAR

REMOTE

11/29 800x25

民間 civil

過去5時間に発表されたMETARがありません。

RJTH / Hachijojima

NO RADAR

RADIO

26/08 2000x45

民間 civil

過去5時間に発表されたMETARがありません。

RJTF / Chofu
VMC

NO RADAR

Flight Service

35/17 800x30

民間 civil

9999

180@12G24KT

29.65

RJTF 050800Z 18012G24KT 150V210 9999 FEW030 BKN/// 26/18 Q1004

RJTQ / Miyake

NO RADAR

REMOTE

02/20 1200x30

民間 civil

過去5時間に発表されたMETARがありません。

RJTC / Tachikawa

NO RADAR

TOWER

01/19 900x45

自衛隊 military

過去5時間に発表されたMETARがありません。

RJTA / Atsugi

NO RADAR

TOWER

01/19 2438x45

自衛隊 military

過去5時間に発表されたMETARがありません。

RJTU / Utsunomiya

RJTY_APP

TOWER

01/19 1700x45

自衛隊 military

過去5時間に発表されたMETARがありません。

RJTJ / Iruma

RJTY_APP

TOWER

17/35 2000x45

自衛隊 military

過去5時間に発表されたMETARがありません。

RJTY / Yokota
VMC

RJTY_APP

TOWER

18/36 3353x60

自衛隊 military

9999

200@12G20KT

29.69

RJTY 050756Z AUTO 20012G20KT 10SM CLR 25/16 A2969 RMK AO2 SLP052 T02500164 FZRANO $

RJAF / Matsumoto
VMC

NO RADAR

RADIO

18/36 2000x45

民間 civil

9999

240@11KT

29.68

RJAF 050700Z 24011KT 9999 FEW070 BKN/// 31/08 Q1005

RJNS / Shizuoka
VMC

NO RADAR

RADIO

30/12 2500x60

民間 civil

9999

230@8KT

29.68

RJNS 050800Z 23008KT 190V270 9999 FEW025 BKN/// 26/20 Q1005

RJNY / Yaizu-Shizuhama

NO RADAR

TOWER

27/09 1500x45

自衛隊 military

過去5時間に発表されたMETARがありません。

RJNH / Hamamatsu

RJNH_APP

TOWER

09/27 2550x60

自衛隊 military

過去5時間に発表されたMETARがありません。

RJGG / Chubu
VMC

RJGG_APP

TOWER

36/18 3500x60

民間 civil

9999

150@6KT

29.65

RJGG 050830Z 15006KT CAVOK 27/18 Q1004 NOSIG

RJNA / Nagoya

RJGG_APP

TOWER

34/16 2740x45

民間 civil

過去5時間に発表されたMETARがありません。

RJNG / Gifu

RJGG_APP

TOWER

28/10 2710x46

自衛隊 military

過去5時間に発表されたMETARがありません。

RJOE / Akeno

RJOE_APP

TOWER

13/31 500x30
04/22 500x30

自衛隊 military

過去5時間に発表されたMETARがありません。

RJNK / Komatsu
VMC

RJNK_APP

TOWER

06/24 2700x45

共用 dual

9999

270@9KT

29.70

RJNK 050800Z 27009KT 9999 FEW080 BKN230 24/19 Q1006

RJNW / Noto
VMC

NO RADAR

RADIO

25/07 2000x45

民間 civil

9999

160@5KT

29.70

RJNW 050800Z 16005KT 130V220 9999 FEW020 SCT/// 22/19 Q1006

RJNT / Toyama
VMC

NO RADAR

TOWER

20/02 2000x45

民間 civil

9999

350@6KT

29.68

RJNT 050800Z 35006KT 320V040 9999 FEW035 BKN/// 26/19 Q1005

RJNF / Fukui

NO RADAR

REMOTE

18/36 1200x30

民間 civil

過去5時間に発表されたMETARがありません。

RJBD / Nanki-Shirahama
VMC

NO RADAR

RADIO

15/33 2000x45

民間 civil

9000

170@5KT

29.73

RJBD 050800Z 17005KT 140V220 9000 FEW007 SCT/// 24/22 Q1007

RJOY / Yao
VMC

RJBB_APP

TOWER

27/09 1490x45
13/31 1200x30

民間 civil

9999

270@10KT

29.68

RJOY 050800Z 27010KT CAVOK 28/18 Q1005

RJOO / Osaka
VMC

RJBB_APP

TOWER

32L/14R 3000x60
32R/14L 1830x45

民間 civil

9999

240@8KT

29.68

RJOO 050800Z 24008KT CAVOK 28/19 Q1005 RMK A2969

RJOB / Okayama
VMC

RJBB_APP

TOWER

07/25 3000x45

民間 civil

9999

210@5KT

29.70

RJOB 050800Z 21005KT 9999 FEW030 BKN/// 27/19 Q1006

RJBB / Kansai
VMC

RJBB_APP

TOWER

06R/24L 3500x60
06L/24R 4000x60

民間 civil

9999

230@13KT

29.70

RJBB 050830Z 23013KT CAVOK 26/20 Q1006 NOSIG

RJBE / Kobe
VMC

RJBB_APP

TOWER

09/27 2500x60

民間 civil

9999

260@7KT

29.70

RJBE 050800Z 26007KT CAVOK 23/18 Q1006

RJBT / Tajima
VMC

NO RADAR

REMOTE

01/19 1200x30

民間 civil

9999

010@7KT

29.68

RJBT 050800Z 01007KT 340V050 9999 FEW035 BKN/// 27/19 Q1005

RJOR / Tottori
VMC

NO RADAR

RADIO

10/28 2000x45

民間 civil

9999

280@10KT

29.70

RJOR 050800Z 28010KT 9999 FEW035 BKN/// 25/19 Q1006

RJNO / Oki

NO RADAR

REMOTE

07/25 2000x45

民間 civil

過去5時間に発表されたMETARがありません。

RJOH / Miho
VMC

RJOH_APP

TOWER

25/07 2500x45

共用 dual

9999

280@14KT

29.70

RJOH 050800Z 28014KT 9999 FEW050 SCT250 27/18 Q1006

RJOC / Izumo
VMC

RJOH_APP

RADIO

07/25 2000x45

共用 dual

9999

260@12KT

29.70

RJOC 050800Z 26012KT 9999 FEW020 BKN/// 24/20 Q1006

RJDG Fukuoka Control

RJOT / Takamatsu
VMC

RJBB_APP

TOWER

26/08 2500x60

民間 civil

9999

280@4KT

29.70

RJOT 050800Z 28004KT 9999 FEW030 BKN/// 28/19 Q1006

RJOK / Kochi
VMC

RJBB_APP

TOWER

32/14 2500x45

民間 civil

9999

170@4KT

29.70

RJOK 050800Z 17004KT 140V210 9999 FEW030 BKN/// 24/21 Q1006

RJOS / Tokushima
VMC

RJOS_APP

TOWER

29/11 2500x45

共用 dual

9999

140@11KT

29.68

RJOS 050800Z 14011KT 9999 FEW030 BKN230 26/19 Q1005

RJOA / Hiroshima
VMC

RJOA_APP

TOWER

10/28 3000x60

民間 civil

9999

160@3KT

29.73

RJOA 050800Z 16003KT 130V190 CAVOK 25/20 Q1007

RJBH / Hiroshimanishi

NO RADAR

Flight Service

04/22 1800x45

民間 civil

過去5時間に発表されたMETARがありません。

RJOI / Iwakuni
VMC

RJOI_APP

TOWER

02/20 2440x60

共用 dual

9999

100@4KT

29.71

RJOI 050755Z 10004KT 9999 FEW010 OVC240 25/20 A2971 RMK SLP062 T02500200

RJOM / Matsuyama
VMC

RJOI_APP

TOWER

14/32 2500x45

民間 civil

9999

200@3KT

29.70

RJOM 050800Z 20003KT 9999 FEW035 BKN/// 27/16 Q1006

RJOZ / Ozuki

RJFZ_APP

TOWER

35/17 1201x61
12/30 899x46

自衛隊 military

過去5時間に発表されたMETARがありません。

RJOF / Hofu
VMC

RJFZ_APP

TOWER

30/12 1180x60
01/19 1480x45

自衛隊 military

9999

270@4KT

29.70

RJOF 050749Z 27004KT 230V350 9999 FEW025 BKN180 OVC250 27/19 Q1006 RMK 1CU025 5AC180 A2972

RJDC / Yamaguchi-Ube
VMC

RJFZ_APP

RADIO

07/25 2500x45

民間 civil

9999

290@7KT

29.70

RJDC 050800Z 29007KT 260V350 CAVOK 26/18 Q1006

RJFR / Kitakyushu
VMC

RJFZ_APP

TOWER

18/36 2500x60

民間 civil

9999

320@8KT

29.70

RJFR 050800Z 32008KT CAVOK 25/19 Q1006

RJFZ / Tsuiki

RJFZ_APP

TOWER

25/07 2399x46

自衛隊 military

過去5時間に発表されたMETARがありません。

RJOW / Iwami
VMC

NO RADAR

REMOTE

11/29 2000x45

民間 civil

9999

310@7KT

29.73

RJOW 050800Z 31007KT 9999 FEW015 BKN/// 22/20 Q1007

RJDT / Tsushima
VMC

NO RADAR

REMOTE

32/14 1900x45

民間 civil

9999

310@7KT

29.73

RJDT 050800Z 31007KT 260V340 9999 FEW015 BKN/// 23/19 Q1007

RJFF / Fukuoka
VMC

RJFF_APP

TOWER

16/34 2800x60

民間 civil

9999

340@6KT

29.70

RJFF 050830Z 34006KT CAVOK 25/18 Q1006 NOSIG RMK A2973

RJFS / Saga
VMC

RJFF_APP

RADIO

29/11 2000x45

民間 civil

9999

200@9KT

29.70

RJFS 050800Z 20009KT CAVOK 26/22 Q1006

RJFA / Ashiya

RJFF_APP

TOWER

12/30 1640x46

自衛隊 military

過去5時間に発表されたMETARがありません。

RJDB / Iki

RJFF_APP

REMOTE

20/02 1200x30

民間 civil

過去5時間に発表されたMETARがありません。

RJFO / Oita
VMC

RJFO_APP

TOWER

01/19 3000x45

民間 civil

9999

180@3KT

29.70

RJFO 050800Z 18003KT 140V210 CAVOK 24/19 Q1006

RJFU / Nagasaki
VMC

RJFU_APP

TOWER

32/14 3000x60

民間 civil

9999

360@6KT

29.70

RJFU 050800Z 36006KT CAVOK 25/22 Q1006

RJDU / Omura

RJFU_APP

TOWER

18/36 1200x30

自衛隊 military

過去5時間に発表されたMETARがありません。

RJFE / Fukue
VMC

NO RADAR

RADIO

03/21 2000x45

民間 civil

9999

000@1KT

29.73

RJFE 050800Z VRB01KT 9999 FEW015 OVC/// 24/21 Q1007

RJDO / Ojika

NO RADAR

REMOTE

03/21 800x30

民間 civil

過去5時間に発表されたMETARがありません。

RJDK / Kamigoto

NO RADAR

REMOTE

17/35 800x30

民間 civil

過去5時間に発表されたMETARがありません。

RJDA / Amakusa

NO RADAR

Flight Service

31/13 1000x30

民間 civil

過去5時間に発表されたMETARがありません。

RJFT / Kumamoto
VMC

RJFT_APP

TOWER

07/25 3000x45

民間 civil

9999

200@5KT

29.73

RJFT 050800Z 20005KT 170V230 CAVOK 29/17 Q1007

RJFN / Nyutabaru

RJFM_APP

TOWER

28/10 2701x46

自衛隊 military

過去5時間に発表されたMETARがありません。

RJFM / Miyazaki
VMC

RJFM_APP

TOWER

27/09 2500x45

民間 civil

9999

140@10KT

29.70

RJFM 050800Z 14010KT 9999 FEW030 BKN/// 25/21 Q1006

RJFK / Kagoshima
VMC

RJFK_APP

TOWER

34/16 3000x45

民間 civil

9999

210@6KT

29.76

RJFK 050800Z 21006KT 160V230 9999 FEW035 SCT130 BKN/// 26/19 Q1008 RMK 1CU035 3AC130 A2977 VOLCANIC ASH CLOUD S

RJFY / Kanoya

RJFY_APP

TOWER

26L/08R 2250x45
26R/08L 1200x40

自衛隊 military

過去5時間に発表されたMETARがありません。

RJFG / Tanegashima
VMC

NO RADAR

RADIO

31/13 2000x45

民間 civil

6000

210@4KT

29.76

RJFG 050800Z 21004KT 6000 -RA FEW005 SCT010 BKN150 24/22 Q1008

RJFC / Yakushima

NO RADAR

REMOTE

14/32 1500x45

民間 civil

過去5時間に発表されたMETARがありません。

RJBG Kobe Control

ROAH / Naha
VMC

ROAH_APP

TOWER

36/18 3000x45

共用 dual

9999

190@8KT

29.73

ROAH 050830Z 19008KT 9999 FEW009 BKN/// 29/27 Q1007

RORA / Aguni

ROAH_APP

REMOTE

01/19 800x25

民間 civil

過去5時間に発表されたMETARがありません。

ROKJ / Kumejima

ROAH_APP

REMOTE

03/21 2000x45

民間 civil

過去5時間に発表されたMETARがありません。

RODN / Kadena
VMC

ROAH_APP

TOWER

05L/23R 3688x91
05R/23L 3688x61

自衛隊 military

9999

210@14G20KT

29.77

RODN 050756Z AUTO 21014G20KT 10SM CLR 30/26 A2977 RMK AO2 SLP086 T02990260 $

ROTM / Futenma
VMC

ROAH_APP

TOWER

06/24 2740x45

自衛隊 military

9999

220@15G23KT

29.79

ROTM 050756Z 22015G23KT 9999 SCT021 BKN200 31/24 A2979 RMK SLP073 T03060239

RORS / Shimojishima
VMC

RORS_APP

TOWER

17/35 3000x60

民間 civil

9999

210@11KT

29.73

RORS 050800Z 21011KT 180V250 9999 VCSH FEW011 SCT030 BKN/// 30/28 Q1007

ROMY / Miyako
VMC

RORS_APP

TOWER

04/22 2000x45

民間 civil

9999

210@19KT

29.73

ROMY 050800Z 21019KT 9999 VCSH FEW013 SCT018 FEW025TCU BKN030 30/27 Q1007

ROIG / New Ishigaki
VMC

RORS_APP

TOWER

22/04 2000x45

民間 civil

9999

240@16KT

29.70

ROIG 050800Z 24016KT 9999 FEW020 BKN023 BKN/// 31/27 Q1006

RORT / Tarama

RORS_APP

REMOTE

36/18 1500x45

民間 civil

過去5時間に発表されたMETARがありません。

RJKA / Amami
VMC

NO RADAR

RADIO

03/21 2000x45

民間 civil

6000

210@4KT

29.73

RJKA 050800Z 21004KT 180V250 6000 -SHRA FEW005 SCT025 BKN045 24/24 Q1007

RJKI / Kikai
VMC

NO RADAR

REMOTE

07/25 1200x30

民間 civil

9999

230@4KT

29.76

RJKI 050800Z AUTO 23004KT 180V270 9999 FEW017 SCT037 BKN049 //////CB 24/24 Q1008

RJKN / Tokunoshima
IMC

NO RADAR

REMOTE

19/01 2000x45

民間 civil

9999

180@5KT

29.76

RJKN 050829Z AUTO 18005KT 9999 BKN005 OVC050 27/26 Q1008 RMK A2977

RJKB / Okierabu

NO RADAR

REMOTE

04/22 1350x45

民間 civil

過去5時間に発表されたMETARがありません。

RORY / Yoron
VMC

NO RADAR

REMOTE

32/14 1320x30

民間 civil

9999

250@11KT

29.73

RORY 050800Z AUTO 25011KT 9999 NCD 29/26 Q1007

RORK / Kitadaito
VMC

NO RADAR

REMOTE

03/21 1500x45

民間 civil

9999

240@11KT

29.79

RORK 050800Z AUTO 24011KT 9999 FEW009 29/27 Q1009

ROMD / Minami-daito
VMC

NO RADAR

REMOTE

02/20 1500x45

民間 civil

9999

230@12KT

29.79

ROMD 050800Z AUTO 23012KT 9999 BKN010 29/26 Q1009

ROYN / Yonaguni
VMC

NO RADAR

REMOTE

26/08 2000x45

民間 civil

9999

190@7KT

29.70

ROYN 050800Z AUTO 19007KT 160V220 9999 SCT018 31/28 Q1006

RORH / Hateruma

NO RADAR

REMOTE

02/20 800x25

民間 civil

過去5時間に発表されたMETARがありません。

ROKR / Kerama

NO RADAR

REMOTE

02/20 800x25

民間 civil

過去5時間に発表されたMETARがありません。